sensor_id;sensor_type;location;lat;lon;timestamp;P1;durP1;ratioP1;P2;durP2;ratioP2
3911;SDS011;1971;51.778;10.330;2023-08-20T00:02:26;6.90;;;6.27;;
3911;SDS011;1971;51.778;10.330;2023-08-20T00:05:01;6.90;;;6.40;;
3911;SDS011;1971;51.778;10.330;2023-08-20T00:07:32;7.73;;;7.13;;
3911;SDS011;1971;51.778;10.330;2023-08-20T00:10:06;6.93;;;6.30;;
3911;SDS011;1971;51.778;10.330;2023-08-20T00:12:37;7.77;;;7.20;;
3911;SDS011;1971;51.778;10.330;2023-08-20T00:15:08;7.37;;;6.77;;
3911;SDS011;1971;51.778;10.330;2023-08-20T00:17:39;7.10;;;6.40;;
3911;SDS011;1971;51.778;10.330;2023-08-20T00:20:13;7.10;;;6.50;;
3911;SDS011;1971;51.778;10.330;2023-08-20T00:22:44;7.73;;;7.13;;
3911;SDS011;1971;51.778;10.330;2023-08-20T00:25:18;7.43;;;6.90;;
3911;SDS011;1971;51.778;10.330;2023-08-20T00:27:49;6.90;;;6.30;;
3911;SDS011;1971;51.778;10.330;2023-08-20T00:30:19;6.30;;;5.80;;
3911;SDS011;1971;51.778;10.330;2023-08-20T00:32:51;6.83;;;6.30;;
3911;SDS011;1971;51.778;10.330;2023-08-20T00:35:23;8.43;;;7.87;;
3911;SDS011;1971;51.778;10.330;2023-08-20T00:37:53;6.43;;;5.90;;
3911;SDS011;1971;51.778;10.330;2023-08-20T00:40:29;7.90;;;7.30;;
3911;SDS011;1971;51.778;10.330;2023-08-20T00:43:00;7.43;;;6.80;;
3911;SDS011;1971;51.778;10.330;2023-08-20T00:45:30;7.47;;;6.80;;
3911;SDS011;1971;51.778;10.330;2023-08-20T00:48:04;7.73;;;7.03;;
3911;SDS011;1971;51.778;10.330;2023-08-20T00:50:37;7.20;;;6.57;;
3911;SDS011;1971;51.778;10.330;2023-08-20T00:53:08;7.17;;;6.60;;
3911;SDS011;1971;51.778;10.330;2023-08-20T00:55:44;9.03;;;8.23;;
3911;SDS011;1971;51.778;10.330;2023-08-20T00:58:14;8.17;;;7.57;;
3911;SDS011;1971;51.778;10.330;2023-08-20T01:00:45;12.90;;;11.93;;
3911;SDS011;1971;51.778;10.330;2023-08-20T01:03:16;15.60;;;14.50;;
3911;SDS011;1971;51.778;10.330;2023-08-20T01:05:55;16.90;;;15.50;;
3911;SDS011;1971;51.778;10.330;2023-08-20T01:08:33;15.87;;;14.77;;
3911;SDS011;1971;51.778;10.330;2023-08-20T01:11:12;17.13;;;15.73;;
3911;SDS011;1971;51.778;10.330;2023-08-20T01:13:53;16.83;;;15.33;;
3911;SDS011;1971;51.778;10.330;2023-08-20T01:16:24;19.37;;;17.87;;
3911;SDS011;1971;51.778;10.330;2023-08-20T01:18:54;20.00;;;18.30;;
3911;SDS011;1971;51.778;10.330;2023-08-20T01:21:28;19.77;;;18.17;;
3911;SDS011;1971;51.778;10.330;2023-08-20T01:24:10;19.40;;;17.77;;
3911;SDS011;1971;51.778;10.330;2023-08-20T01:29:48;18.87;;;17.20;;
3911;SDS011;1971;51.778;10.330;2023-08-20T01:32:18;18.73;;;17.33;;
3911;SDS011;1971;51.778;10.330;2023-08-20T01:34:50;18.57;;;16.97;;
3911;SDS011;1971;51.778;10.330;2023-08-20T01:37:25;19.13;;;17.63;;
3911;SDS011;1971;51.778;10.330;2023-08-20T01:39:55;18.90;;;17.27;;
3911;SDS011;1971;51.778;10.330;2023-08-20T01:42:26;20.70;;;18.93;;
3911;SDS011;1971;51.778;10.330;2023-08-20T01:44:59;19.47;;;17.90;;
3911;SDS011;1971;51.778;10.330;2023-08-20T01:47:29;19.23;;;17.63;;
3911;SDS011;1971;51.778;10.330;2023-08-20T01:50:00;18.50;;;16.97;;
3911;SDS011;1971;51.778;10.330;2023-08-20T01:52:33;19.30;;;17.60;;
3911;SDS011;1971;51.778;10.330;2023-08-20T01:55:04;19.77;;;18.00;;
3911;SDS011;1971;51.778;10.330;2023-08-20T01:57:34;21.43;;;19.17;;
3911;SDS011;1971;51.778;10.330;2023-08-20T02:00:08;20.00;;;18.30;;
3911;SDS011;1971;51.778;10.330;2023-08-20T02:02:39;19.87;;;18.40;;
3911;SDS011;1971;51.778;10.330;2023-08-20T02:05:10;22.57;;;20.67;;
3911;SDS011;1971;51.778;10.330;2023-08-20T02:07:40;22.93;;;20.83;;
3911;SDS011;1971;51.778;10.330;2023-08-20T02:10:10;23.70;;;21.73;;
3911;SDS011;1971;51.778;10.330;2023-08-20T02:12:41;22.67;;;20.70;;
3911;SDS011;1971;51.778;10.330;2023-08-20T02:15:14;24.17;;;22.17;;
3911;SDS011;1971;51.778;10.330;2023-08-20T02:17:45;24.20;;;22.30;;
3911;SDS011;1971;51.778;10.330;2023-08-20T02:20:15;24.63;;;22.47;;
3911;SDS011;1971;51.778;10.330;2023-08-20T02:22:47;23.50;;;21.27;;
3911;SDS011;1971;51.778;10.330;2023-08-20T02:25:17;24.03;;;22.13;;
3911;SDS011;1971;51.778;10.330;2023-08-20T02:27:47;25.03;;;22.80;;
3911;SDS011;1971;51.778;10.330;2023-08-20T02:30:20;24.13;;;22.00;;
3911;SDS011;1971;51.778;10.330;2023-08-20T02:32:51;17.53;;;16.03;;
3911;SDS011;1971;51.778;10.330;2023-08-20T02:35:21;22.87;;;20.87;;
3911;SDS011;1971;51.778;10.330;2023-08-20T02:37:51;21.70;;;19.60;;
3911;SDS011;1971;51.778;10.330;2023-08-20T02:40:23;21.13;;;19.50;;
3911;SDS011;1971;51.778;10.330;2023-08-20T02:42:53;21.33;;;19.43;;
3911;SDS011;1971;51.778;10.330;2023-08-20T02:45:26;21.20;;;19.50;;
3911;SDS011;1971;51.778;10.330;2023-08-20T02:47:56;22.73;;;20.83;;
3911;SDS011;1971;51.778;10.330;2023-08-20T02:50:26;19.43;;;17.80;;
3911;SDS011;1971;51.778;10.330;2023-08-20T02:53:00;20.97;;;19.17;;
3911;SDS011;1971;51.778;10.330;2023-08-20T02:55:30;21.47;;;19.40;;
3911;SDS011;1971;51.778;10.330;2023-08-20T02:58:01;19.73;;;18.23;;
3911;SDS011;1971;51.778;10.330;2023-08-20T03:00:37;20.13;;;18.37;;
3911;SDS011;1971;51.778;10.330;2023-08-20T03:03:12;21.20;;;19.30;;
3911;SDS011;1971;51.778;10.330;2023-08-20T03:05:43;20.83;;;19.13;;
3911;SDS011;1971;51.778;10.330;2023-08-20T03:08:14;19.53;;;17.93;;
3911;SDS011;1971;51.778;10.330;2023-08-20T03:10:44;20.83;;;19.10;;
3911;SDS011;1971;51.778;10.330;2023-08-20T03:13:14;22.17;;;20.30;;
3911;SDS011;1971;51.778;10.330;2023-08-20T03:15:47;20.73;;;19.13;;
3911;SDS011;1971;51.778;10.330;2023-08-20T03:18:18;23.20;;;21.20;;
3911;SDS011;1971;51.778;10.330;2023-08-20T03:20:49;22.97;;;20.97;;
3911;SDS011;1971;51.778;10.330;2023-08-20T03:23:19;24.07;;;21.97;;
3911;SDS011;1971;51.778;10.330;2023-08-20T03:25:50;26.20;;;23.97;;
3911;SDS011;1971;51.778;10.330;2023-08-20T03:28:21;23.07;;;20.97;;
3911;SDS011;1971;51.778;10.330;2023-08-20T03:30:58;25.87;;;23.77;;
3911;SDS011;1971;51.778;10.330;2023-08-20T03:33:34;23.93;;;21.90;;
3911;SDS011;1971;51.778;10.330;2023-08-20T03:36:05;24.73;;;22.63;;
3911;SDS011;1971;51.778;10.330;2023-08-20T03:38:35;25.53;;;23.23;;
3911;SDS011;1971;51.778;10.330;2023-08-20T03:41:05;24.07;;;21.97;;
3911;SDS011;1971;51.778;10.330;2023-08-20T03:43:36;24.70;;;22.50;;
3911;SDS011;1971;51.778;10.330;2023-08-20T03:46:09;26.67;;;24.50;;
3911;SDS011;1971;51.778;10.330;2023-08-20T03:48:41;27.73;;;25.23;;
3911;SDS011;1971;51.778;10.330;2023-08-20T03:51:12;26.20;;;23.70;;
3911;SDS011;1971;51.778;10.330;2023-08-20T03:53:42;25.30;;;23.17;;
3911;SDS011;1971;51.778;10.330;2023-08-20T03:56:12;26.80;;;24.50;;
3911;SDS011;1971;51.778;10.330;2023-08-20T03:58:43;26.87;;;24.53;;
3911;SDS011;1971;51.778;10.330;2023-08-20T04:01:16;25.80;;;23.20;;
3911;SDS011;1971;51.778;10.330;2023-08-20T04:03:46;25.67;;;23.50;;
3911;SDS011;1971;51.778;10.330;2023-08-20T04:06:17;25.67;;;23.40;;
3911;SDS011;1971;51.778;10.330;2023-08-20T04:08:48;26.60;;;24.40;;
3911;SDS011;1971;51.778;10.330;2023-08-20T04:11:19;25.27;;;23.17;;
3911;SDS011;1971;51.778;10.330;2023-08-20T04:13:49;26.33;;;24.00;;
3911;SDS011;1971;51.778;10.330;2023-08-20T04:16:22;26.07;;;23.67;;
3911;SDS011;1971;51.778;10.330;2023-08-20T04:18:53;26.13;;;23.83;;
3911;SDS011;1971;51.778;10.330;2023-08-20T04:21:24;26.43;;;24.13;;
3911;SDS011;1971;51.778;10.330;2023-08-20T04:23:54;25.27;;;22.97;;
3911;SDS011;1971;51.778;10.330;2023-08-20T04:26:25;26.83;;;24.57;;
3911;SDS011;1971;51.778;10.330;2023-08-20T04:28:58;26.37;;;23.70;;
3911;SDS011;1971;51.778;10.330;2023-08-20T04:31:32;28.50;;;25.70;;
3911;SDS011;1971;51.778;10.330;2023-08-20T04:34:07;26.80;;;24.30;;
3911;SDS011;1971;51.778;10.330;2023-08-20T04:36:43;28.77;;;26.23;;
3911;SDS011;1971;51.778;10.330;2023-08-20T04:39:17;30.53;;;27.83;;
3911;SDS011;1971;51.778;10.330;2023-08-20T04:41:51;29.93;;;26.97;;
3911;SDS011;1971;51.778;10.330;2023-08-20T04:44:25;29.47;;;26.77;;
3911;SDS011;1971;51.778;10.330;2023-08-20T04:47:00;31.13;;;28.20;;
3911;SDS011;1971;51.778;10.330;2023-08-20T04:49:32;31.20;;;28.20;;
3911;SDS011;1971;51.778;10.330;2023-08-20T04:52:03;33.00;;;29.70;;
3911;SDS011;1971;51.778;10.330;2023-08-20T04:54:33;31.50;;;27.93;;
3911;SDS011;1971;51.778;10.330;2023-08-20T04:57:03;32.43;;;28.97;;
3911;SDS011;1971;51.778;10.330;2023-08-20T04:59:34;33.93;;;30.60;;
3911;SDS011;1971;51.778;10.330;2023-08-20T05:02:13;33.77;;;30.57;;
3911;SDS011;1971;51.778;10.330;2023-08-20T05:04:49;31.40;;;28.40;;
3911;SDS011;1971;51.778;10.330;2023-08-20T05:07:20;33.00;;;29.90;;
3911;SDS011;1971;51.778;10.330;2023-08-20T05:09:50;31.70;;;28.13;;
3911;SDS011;1971;51.778;10.330;2023-08-20T05:12:20;32.00;;;28.20;;
3911;SDS011;1971;51.778;10.330;2023-08-20T05:14:51;34.07;;;30.67;;
3911;SDS011;1971;51.778;10.330;2023-08-20T05:17:24;32.93;;;29.60;;
3911;SDS011;1971;51.778;10.330;2023-08-20T05:19:56;34.17;;;30.67;;
3911;SDS011;1971;51.778;10.330;2023-08-20T05:22:26;33.03;;;29.73;;
3911;SDS011;1971;51.778;10.330;2023-08-20T05:24:56;33.50;;;30.00;;
3911;SDS011;1971;51.778;10.330;2023-08-20T05:27:27;33.00;;;29.90;;
3911;SDS011;1971;51.778;10.330;2023-08-20T05:29:57;33.87;;;30.40;;
3911;SDS011;1971;51.778;10.330;2023-08-20T05:32:32;33.90;;;30.40;;
3911;SDS011;1971;51.778;10.330;2023-08-20T05:35:03;37.97;;;32.60;;
3911;SDS011;1971;51.778;10.330;2023-08-20T05:37:35;31.37;;;28.07;;
3911;SDS011;1971;51.778;10.330;2023-08-20T05:40:06;34.50;;;30.00;;
3911;SDS011;1971;51.778;10.330;2023-08-20T05:42:38;32.10;;;28.70;;
3911;SDS011;1971;51.778;10.330;2023-08-20T05:45:09;33.30;;;29.80;;
3911;SDS011;1971;51.778;10.330;2023-08-20T05:47:42;30.83;;;27.57;;
3911;SDS011;1971;51.778;10.330;2023-08-20T05:50:13;32.47;;;29.17;;
3911;SDS011;1971;51.778;10.330;2023-08-20T05:52:44;32.03;;;28.70;;
3911;SDS011;1971;51.778;10.330;2023-08-20T05:55:15;30.50;;;27.50;;
3911;SDS011;1971;51.778;10.330;2023-08-20T05:57:46;29.50;;;26.53;;
3911;SDS011;1971;51.778;10.330;2023-08-20T06:00:17;28.90;;;25.90;;
3911;SDS011;1971;51.778;10.330;2023-08-20T06:02:50;30.53;;;27.27;;
3911;SDS011;1971;51.778;10.330;2023-08-20T06:05:20;29.03;;;26.03;;
3911;SDS011;1971;51.778;10.330;2023-08-20T06:07:51;27.20;;;24.70;;
3911;SDS011;1971;51.778;10.330;2023-08-20T06:10:21;27.33;;;24.63;;
3911;SDS011;1971;51.778;10.330;2023-08-20T06:12:51;26.70;;;24.10;;
3911;SDS011;1971;51.778;10.330;2023-08-20T06:15:23;28.10;;;24.83;;
3911;SDS011;1971;51.778;10.330;2023-08-20T06:17:56;25.80;;;23.40;;
3911;SDS011;1971;51.778;10.330;2023-08-20T06:20:27;22.33;;;20.17;;
3911;SDS011;1971;51.778;10.330;2023-08-20T06:22:57;23.80;;;20.80;;
3911;SDS011;1971;51.778;10.330;2023-08-20T06:25:28;23.67;;;21.17;;
3911;SDS011;1971;51.778;10.330;2023-08-20T06:27:58;21.10;;;19.00;;
3911;SDS011;1971;51.778;10.330;2023-08-20T06:30:28;20.07;;;18.23;;
3911;SDS011;1971;51.778;10.330;2023-08-20T06:33:00;19.50;;;17.63;;
3911;SDS011;1971;51.778;10.330;2023-08-20T06:35:31;17.70;;;15.83;;
3911;SDS011;1971;51.778;10.330;2023-08-20T06:38:01;18.60;;;16.87;;
3911;SDS011;1971;51.778;10.330;2023-08-20T06:40:31;18.90;;;17.20;;
3911;SDS011;1971;51.778;10.330;2023-08-20T06:43:02;17.33;;;15.93;;
3911;SDS011;1971;51.778;10.330;2023-08-20T06:45:32;18.50;;;16.70;;
3911;SDS011;1971;51.778;10.330;2023-08-20T06:48:05;17.57;;;16.20;;
3911;SDS011;1971;51.778;10.330;2023-08-20T06:50:36;16.47;;;15.07;;
3911;SDS011;1971;51.778;10.330;2023-08-20T06:53:07;16.30;;;14.90;;
3911;SDS011;1971;51.778;10.330;2023-08-20T06:55:37;16.60;;;15.20;;
3911;SDS011;1971;51.778;10.330;2023-08-20T06:58:08;18.50;;;16.90;;
3911;SDS011;1971;51.778;10.330;2023-08-20T07:00:39;19.00;;;17.13;;
3911;SDS011;1971;51.778;10.330;2023-08-20T07:03:14;18.17;;;16.57;;
3911;SDS011;1971;51.778;10.330;2023-08-20T07:05:48;18.37;;;16.50;;
3911;SDS011;1971;51.778;10.330;2023-08-20T07:08:19;17.63;;;16.23;;
3911;SDS011;1971;51.778;10.330;2023-08-20T07:10:59;19.80;;;18.03;;
3911;SDS011;1971;51.778;10.330;2023-08-20T07:13:33;19.57;;;17.97;;
3911;SDS011;1971;51.778;10.330;2023-08-20T07:16:07;19.60;;;17.87;;
3911;SDS011;1971;51.778;10.330;2023-08-20T07:18:40;20.50;;;18.90;;
3911;SDS011;1971;51.778;10.330;2023-08-20T07:21:10;18.07;;;16.37;;
3911;SDS011;1971;51.778;10.330;2023-08-20T07:23:41;18.77;;;17.23;;
3911;SDS011;1971;51.778;10.330;2023-08-20T07:26:11;19.30;;;17.70;;
3911;SDS011;1971;51.778;10.330;2023-08-20T07:28:43;16.97;;;15.47;;
3911;SDS011;1971;51.778;10.330;2023-08-20T07:31:33;18.43;;;16.93;;
3911;SDS011;1971;51.778;10.330;2023-08-20T07:34:06;18.90;;;17.30;;
3911;SDS011;1971;51.778;10.330;2023-08-20T07:36:38;16.00;;;14.70;;
3911;SDS011;1971;51.778;10.330;2023-08-20T07:39:08;18.17;;;16.67;;
3911;SDS011;1971;51.778;10.330;2023-08-20T07:41:43;18.17;;;16.50;;
3911;SDS011;1971;51.778;10.330;2023-08-20T07:44:16;17.37;;;15.97;;
3911;SDS011;1971;51.778;10.330;2023-08-20T07:46:48;20.13;;;18.43;;
3911;SDS011;1971;51.778;10.330;2023-08-20T07:49:21;18.10;;;16.40;;
3911;SDS011;1971;51.778;10.330;2023-08-20T07:51:54;16.70;;;15.33;;
3911;SDS011;1971;51.778;10.330;2023-08-20T07:54:24;16.87;;;15.63;;
3911;SDS011;1971;51.778;10.330;2023-08-20T07:56:55;16.03;;;14.63;;
3911;SDS011;1971;51.778;10.330;2023-08-20T07:59:28;16.60;;;15.10;;
3911;SDS011;1971;51.778;10.330;2023-08-20T08:01:59;16.70;;;15.20;;
3911;SDS011;1971;51.778;10.330;2023-08-20T08:04:32;15.30;;;13.87;;
3911;SDS011;1971;51.778;10.330;2023-08-20T08:07:03;13.33;;;12.33;;
3911;SDS011;1971;51.778;10.330;2023-08-20T08:09:36;14.87;;;13.57;;
3911;SDS011;1971;51.778;10.330;2023-08-20T08:12:07;14.77;;;13.57;;
3911;SDS011;1971;51.778;10.330;2023-08-20T08:14:37;13.03;;;12.03;;
3911;SDS011;1971;51.778;10.330;2023-08-20T08:17:07;12.47;;;11.47;;
3911;SDS011;1971;51.778;10.330;2023-08-20T08:19:40;14.03;;;12.93;;
3911;SDS011;1971;51.778;10.330;2023-08-20T08:22:10;10.90;;;10.10;;
3911;SDS011;1971;51.778;10.330;2023-08-20T08:24:41;8.73;;;7.93;;
3911;SDS011;1971;51.778;10.330;2023-08-20T08:27:11;7.63;;;7.10;;
3911;SDS011;1971;51.778;10.330;2023-08-20T08:29:41;8.40;;;7.70;;
3911;SDS011;1971;51.778;10.330;2023-08-20T08:32:12;10.30;;;9.40;;
3911;SDS011;1971;51.778;10.330;2023-08-20T08:34:44;8.13;;;7.53;;
3911;SDS011;1971;51.778;10.330;2023-08-20T08:37:15;8.43;;;7.80;;
3911;SDS011;1971;51.778;10.330;2023-08-20T08:39:45;10.20;;;9.30;;
3911;SDS011;1971;51.778;10.330;2023-08-20T08:42:15;8.80;;;8.13;;
3911;SDS011;1971;51.778;10.330;2023-08-20T08:44:47;9.20;;;8.40;;
3911;SDS011;1971;51.778;10.330;2023-08-20T08:47:21;8.00;;;7.40;;
3911;SDS011;1971;51.778;10.330;2023-08-20T08:49:55;9.20;;;8.60;;
3911;SDS011;1971;51.778;10.330;2023-08-20T08:52:26;9.90;;;9.10;;
3911;SDS011;1971;51.778;10.330;2023-08-20T08:54:56;7.83;;;7.33;;
3911;SDS011;1971;51.778;10.330;2023-08-20T08:57:26;7.90;;;7.40;;
3911;SDS011;1971;51.778;10.330;2023-08-20T08:59:57;8.83;;;8.23;;
3911;SDS011;1971;51.778;10.330;2023-08-20T09:02:27;8.00;;;7.50;;
3911;SDS011;1971;51.778;10.330;2023-08-20T09:05:00;9.87;;;8.87;;
3911;SDS011;1971;51.778;10.330;2023-08-20T09:07:31;8.90;;;8.20;;
3911;SDS011;1971;51.778;10.330;2023-08-20T09:10:01;9.93;;;9.23;;
3911;SDS011;1971;51.778;10.330;2023-08-20T09:12:31;10.03;;;9.13;;
3911;SDS011;1971;51.778;10.330;2023-08-20T09:15:09;10.53;;;9.73;;
3911;SDS011;1971;51.778;10.330;2023-08-20T09:17:40;10.07;;;9.17;;
3911;SDS011;1971;51.778;10.330;2023-08-20T09:20:13;10.97;;;10.17;;
3911;SDS011;1971;51.778;10.330;2023-08-20T09:22:48;9.60;;;8.90;;
3911;SDS011;1971;51.778;10.330;2023-08-20T09:25:19;10.03;;;9.27;;
3911;SDS011;1971;51.778;10.330;2023-08-20T09:27:53;9.60;;;8.80;;
3911;SDS011;1971;51.778;10.330;2023-08-20T09:30:25;9.73;;;9.10;;
3911;SDS011;1971;51.778;10.330;2023-08-20T09:33:06;10.00;;;9.10;;
3911;SDS011;1971;51.778;10.330;2023-08-20T09:35:40;9.13;;;8.53;;
3911;SDS011;1971;51.778;10.330;2023-08-20T09:38:18;9.67;;;8.87;;
3911;SDS011;1971;51.778;10.330;2023-08-20T09:40:53;8.83;;;8.23;;
3911;SDS011;1971;51.778;10.330;2023-08-20T09:43:24;8.90;;;8.30;;
3911;SDS011;1971;51.778;10.330;2023-08-20T09:45:56;8.00;;;7.40;;
3911;SDS011;1971;51.778;10.330;2023-08-20T09:48:29;9.40;;;8.60;;
3911;SDS011;1971;51.778;10.330;2023-08-20T09:51:08;8.87;;;8.17;;
3911;SDS011;1971;51.778;10.330;2023-08-20T09:53:43;8.80;;;8.07;;
3911;SDS011;1971;51.778;10.330;2023-08-20T09:56:20;8.10;;;7.40;;
3911;SDS011;1971;51.778;10.330;2023-08-20T09:58:54;7.97;;;7.37;;
3911;SDS011;1971;51.778;10.330;2023-08-20T10:01:24;7.90;;;7.30;;
3911;SDS011;1971;51.778;10.330;2023-08-20T10:03:55;7.57;;;6.97;;
3911;SDS011;1971;51.778;10.330;2023-08-20T10:06:29;8.87;;;8.07;;
3911;SDS011;1971;51.778;10.330;2023-08-20T10:09:02;7.10;;;6.53;;
3911;SDS011;1971;51.778;10.330;2023-08-20T10:11:34;7.80;;;7.20;;
3911;SDS011;1971;51.778;10.330;2023-08-20T10:14:04;7.00;;;6.50;;
3911;SDS011;1971;51.778;10.330;2023-08-20T10:16:35;6.13;;;5.73;;
3911;SDS011;1971;51.778;10.330;2023-08-20T10:19:05;6.03;;;5.63;;
3911;SDS011;1971;51.778;10.330;2023-08-20T10:21:39;6.50;;;6.00;;
3911;SDS011;1971;51.778;10.330;2023-08-20T10:24:16;6.27;;;5.77;;
3911;SDS011;1971;51.778;10.330;2023-08-20T10:26:48;6.80;;;6.30;;
3911;SDS011;1971;51.778;10.330;2023-08-20T10:29:39;5.90;;;5.40;;
3911;SDS011;1971;51.778;10.330;2023-08-20T10:32:10;5.97;;;5.47;;
3911;SDS011;1971;51.778;10.330;2023-08-20T10:34:42;5.70;;;5.30;;
3911;SDS011;1971;51.778;10.330;2023-08-20T10:37:28;6.10;;;5.63;;
3911;SDS011;1971;51.778;10.330;2023-08-20T10:39:59;5.40;;;5.10;;
3911;SDS011;1971;51.778;10.330;2023-08-20T10:42:31;5.80;;;5.40;;
3911;SDS011;1971;51.778;10.330;2023-08-20T10:45:01;5.80;;;5.40;;
3911;SDS011;1971;51.778;10.330;2023-08-20T10:47:36;5.50;;;5.10;;
3911;SDS011;1971;51.778;10.330;2023-08-20T10:50:07;5.67;;;5.27;;
3911;SDS011;1971;51.778;10.330;2023-08-20T10:52:41;6.03;;;5.53;;
3911;SDS011;1971;51.778;10.330;2023-08-20T10:55:21;5.50;;;5.10;;
3911;SDS011;1971;51.778;10.330;2023-08-20T10:57:55;7.10;;;6.60;;
3911;SDS011;1971;51.778;10.330;2023-08-20T11:00:29;6.70;;;5.53;;
3911;SDS011;1971;51.778;10.330;2023-08-20T11:02:59;6.00;;;5.60;;
3911;SDS011;1971;51.778;10.330;2023-08-20T11:05:30;6.60;;;6.00;;
3911;SDS011;1971;51.778;10.330;2023-08-20T11:08:04;6.20;;;5.77;;
3911;SDS011;1971;51.778;10.330;2023-08-20T11:10:35;6.30;;;5.70;;
3911;SDS011;1971;51.778;10.330;2023-08-20T11:13:05;6.00;;;5.50;;
3911;SDS011;1971;51.778;10.330;2023-08-20T11:15:35;5.00;;;4.70;;
3911;SDS011;1971;51.778;10.330;2023-08-20T11:18:06;5.67;;;5.27;;
3911;SDS011;1971;51.778;10.330;2023-08-20T11:20:36;5.03;;;4.73;;
3911;SDS011;1971;51.778;10.330;2023-08-20T11:23:09;4.50;;;4.20;;
3911;SDS011;1971;51.778;10.330;2023-08-20T11:25:40;5.10;;;4.80;;
3911;SDS011;1971;51.778;10.330;2023-08-20T11:28:11;5.07;;;4.77;;
3911;SDS011;1971;51.778;10.330;2023-08-20T11:30:41;6.10;;;5.60;;
3911;SDS011;1971;51.778;10.330;2023-08-20T11:33:12;5.13;;;4.73;;
3911;SDS011;1971;51.778;10.330;2023-08-20T11:35:42;5.20;;;4.90;;
3911;SDS011;1971;51.778;10.330;2023-08-20T11:38:15;4.50;;;4.20;;
3911;SDS011;1971;51.778;10.330;2023-08-20T11:40:46;5.70;;;5.30;;
3911;SDS011;1971;51.778;10.330;2023-08-20T11:43:16;5.90;;;5.40;;
3911;SDS011;1971;51.778;10.330;2023-08-20T11:45:46;4.60;;;4.30;;
3911;SDS011;1971;51.778;10.330;2023-08-20T11:48:19;4.47;;;4.17;;
3911;SDS011;1971;51.778;10.330;2023-08-20T11:50:50;5.27;;;4.87;;
3911;SDS011;1971;51.778;10.330;2023-08-20T11:53:23;6.20;;;5.70;;
3911;SDS011;1971;51.778;10.330;2023-08-20T11:55:53;5.50;;;5.10;;
3911;SDS011;1971;51.778;10.330;2023-08-20T11:58:28;5.17;;;4.67;;
3911;SDS011;1971;51.778;10.330;2023-08-20T12:00:58;5.47;;;5.03;;
3911;SDS011;1971;51.778;10.330;2023-08-20T12:03:29;4.90;;;4.60;;
3911;SDS011;1971;51.778;10.330;2023-08-20T12:06:14;5.50;;;5.20;;
3911;SDS011;1971;51.778;10.330;2023-08-20T12:08:52;5.67;;;5.27;;
3911;SDS011;1971;51.778;10.330;2023-08-20T12:11:23;4.90;;;4.43;;
3911;SDS011;1971;51.778;10.330;2023-08-20T12:13:55;5.53;;;5.07;;
3911;SDS011;1971;51.778;10.330;2023-08-20T12:16:25;5.13;;;4.83;;
3911;SDS011;1971;51.778;10.330;2023-08-20T12:18:57;5.40;;;5.00;;
3911;SDS011;1971;51.778;10.330;2023-08-20T12:21:27;6.07;;;5.67;;
3911;SDS011;1971;51.778;10.330;2023-08-20T12:24:00;5.90;;;5.50;;
3911;SDS011;1971;51.778;10.330;2023-08-20T12:26:31;5.27;;;4.87;;
3911;SDS011;1971;51.778;10.330;2023-08-20T12:29:01;5.87;;;5.47;;
3911;SDS011;1971;51.778;10.330;2023-08-20T12:31:32;5.70;;;5.30;;
3911;SDS011;1971;51.778;10.330;2023-08-20T12:34:03;5.63;;;5.20;;
3911;SDS011;1971;51.778;10.330;2023-08-20T12:36:33;4.90;;;4.60;;
3911;SDS011;1971;51.778;10.330;2023-08-20T12:39:06;5.23;;;4.83;;
3911;SDS011;1971;51.778;10.330;2023-08-20T12:41:37;5.50;;;5.10;;
3911;SDS011;1971;51.778;10.330;2023-08-20T12:44:07;5.03;;;4.70;;
3911;SDS011;1971;51.778;10.330;2023-08-20T12:46:37;5.43;;;4.90;;
3911;SDS011;1971;51.778;10.330;2023-08-20T12:49:07;6.90;;;4.50;;
3911;SDS011;1971;51.778;10.330;2023-08-20T12:51:37;5.00;;;4.60;;
3911;SDS011;1971;51.778;10.330;2023-08-20T12:54:11;5.50;;;5.10;;
3911;SDS011;1971;51.778;10.330;2023-08-20T12:56:41;5.43;;;5.13;;
3911;SDS011;1971;51.778;10.330;2023-08-20T12:59:11;4.90;;;4.50;;
3911;SDS011;1971;51.778;10.330;2023-08-20T13:01:41;5.00;;;4.70;;
3911;SDS011;1971;51.778;10.330;2023-08-20T13:04:12;6.10;;;4.93;;
3911;SDS011;1971;51.778;10.330;2023-08-20T13:06:43;5.47;;;4.97;;
3911;SDS011;1971;51.778;10.330;2023-08-20T13:09:17;6.00;;;5.60;;
3911;SDS011;1971;51.778;10.330;2023-08-20T13:11:48;6.40;;;5.90;;
3911;SDS011;1971;51.778;10.330;2023-08-20T13:14:23;5.17;;;4.80;;
3911;SDS011;1971;51.778;10.330;2023-08-20T13:16:54;5.57;;;5.10;;
3911;SDS011;1971;51.778;10.330;2023-08-20T13:19:25;5.17;;;4.80;;
3911;SDS011;1971;51.778;10.330;2023-08-20T13:21:55;5.40;;;4.90;;
3911;SDS011;1971;51.778;10.330;2023-08-20T13:24:28;5.60;;;5.20;;
3911;SDS011;1971;51.778;10.330;2023-08-20T13:26:58;4.80;;;4.50;;
3911;SDS011;1971;51.778;10.330;2023-08-20T13:29:28;5.57;;;5.03;;
3911;SDS011;1971;51.778;10.330;2023-08-20T13:31:59;4.67;;;4.37;;
3911;SDS011;1971;51.778;10.330;2023-08-20T13:34:29;4.80;;;4.40;;
3911;SDS011;1971;51.778;10.330;2023-08-20T13:37:00;7.20;;;5.27;;
3911;SDS011;1971;51.778;10.330;2023-08-20T13:39:33;5.53;;;5.13;;
3911;SDS011;1971;51.778;10.330;2023-08-20T13:42:03;5.20;;;4.90;;
3911;SDS011;1971;51.778;10.330;2023-08-20T13:44:33;5.57;;;5.07;;
3911;SDS011;1971;51.778;10.330;2023-08-20T13:47:04;5.73;;;5.33;;
3911;SDS011;1971;51.778;10.330;2023-08-20T13:49:34;7.20;;;4.93;;
3911;SDS011;1971;51.778;10.330;2023-08-20T13:52:04;6.60;;;4.90;;
3911;SDS011;1971;51.778;10.330;2023-08-20T13:54:38;5.60;;;5.10;;
3911;SDS011;1971;51.778;10.330;2023-08-20T13:57:09;6.50;;;6.00;;
3911;SDS011;1971;51.778;10.330;2023-08-20T13:59:39;5.73;;;5.33;;
3911;SDS011;1971;51.778;10.330;2023-08-20T14:02:10;5.97;;;5.57;;
3911;SDS011;1971;51.778;10.330;2023-08-20T14:04:40;5.80;;;5.40;;
3911;SDS011;1971;51.778;10.330;2023-08-20T14:07:10;5.50;;;5.07;;
3911;SDS011;1971;51.778;10.330;2023-08-20T14:09:43;5.90;;;5.50;;
3911;SDS011;1971;51.778;10.330;2023-08-20T14:12:14;5.93;;;5.53;;
3911;SDS011;1971;51.778;10.330;2023-08-20T14:14:44;5.77;;;5.30;;
3911;SDS011;1971;51.778;10.330;2023-08-20T14:17:17;5.90;;;5.50;;
3911;SDS011;1971;51.778;10.330;2023-08-20T14:19:47;6.30;;;5.80;;
3911;SDS011;1971;51.778;10.330;2023-08-20T14:22:18;5.73;;;5.23;;
3911;SDS011;1971;51.778;10.330;2023-08-20T14:24:51;6.27;;;5.50;;
3911;SDS011;1971;51.778;10.330;2023-08-20T14:27:21;6.03;;;5.57;;
3911;SDS011;1971;51.778;10.330;2023-08-20T14:29:51;5.43;;;5.10;;
3911;SDS011;1971;51.778;10.330;2023-08-20T14:32:22;5.80;;;5.40;;
3911;SDS011;1971;51.778;10.330;2023-08-20T14:34:53;5.93;;;5.53;;
3911;SDS011;1971;51.778;10.330;2023-08-20T14:37:23;5.70;;;5.40;;
3911;SDS011;1971;51.778;10.330;2023-08-20T14:39:56;5.27;;;4.87;;
3911;SDS011;1971;51.778;10.330;2023-08-20T14:42:26;6.50;;;6.03;;
3911;SDS011;1971;51.778;10.330;2023-08-20T14:44:57;6.83;;;6.33;;
3911;SDS011;1971;51.778;10.330;2023-08-20T14:47:27;6.70;;;6.20;;
3911;SDS011;1971;51.778;10.330;2023-08-20T14:49:58;6.97;;;6.37;;
3911;SDS011;1971;51.778;10.330;2023-08-20T14:52:29;6.47;;;5.90;;
3911;SDS011;1971;51.778;10.330;2023-08-20T14:55:01;6.73;;;6.33;;
3911;SDS011;1971;51.778;10.330;2023-08-20T14:57:35;6.63;;;6.13;;
3911;SDS011;1971;51.778;10.330;2023-08-20T15:00:18;6.60;;;6.07;;
3911;SDS011;1971;51.778;10.330;2023-08-20T15:02:49;6.10;;;5.70;;
3911;SDS011;1971;51.778;10.330;2023-08-20T15:05:20;6.73;;;6.23;;
3911;SDS011;1971;51.778;10.330;2023-08-20T15:07:50;6.87;;;6.37;;
3911;SDS011;1971;51.778;10.330;2023-08-20T15:10:23;6.37;;;5.77;;
3911;SDS011;1971;51.778;10.330;2023-08-20T15:12:54;6.10;;;5.60;;
3911;SDS011;1971;51.778;10.330;2023-08-20T15:15:25;6.30;;;5.90;;
3911;SDS011;1971;51.778;10.330;2023-08-20T15:17:55;5.73;;;5.33;;
3911;SDS011;1971;51.778;10.330;2023-08-20T15:20:26;6.90;;;6.40;;